Latest Weather Observations for Rottnest Island

IDW60801

Issued at 10:13 pm WST Saturday 25 June 2022 (issued every 10 minutes, with the page automatically refreshed every 10 minutes)

About weather observations | Map of weather stations | Latest weather observations for WA | Other Formats
Station Details ID: 009193 Name: ROTTNEST ISLAND Lat: -32.01 Lon: 115.50 Height: 43.1 m
Data from the previous 72 hours. | See also: Recent months at Rottnest Island
Date/Time
WST
Temp
°C
App
Temp
°C
Dew
Point
°C
Rel
Hum
%
Delta-T
°C
Wind Press
QNH
hPa
Press
MSL
hPa
Rain since
9am
mm
Dir  Spd
km/h
Gust
km/h
Spd
kts
Gust
kts
25/10:00pm 14.7 10.6 7.7 63 3.5 E 19 24 10 13 1026.5 1026.5 0.0
25/09:30pm 14.6 10.6 8.3 66 3.2 E 19 22 10 12 1026.7 1026.7 0.0
25/09:00pm 14.9 11.1 7.7 62 3.6 E 17 20 9 11 1026.7 1026.7 0.0
25/08:30pm 15.4 11.9 8.9 65 3.3 ESE 17 24 9 13 1026.5 1026.5 0.0
25/08:00pm 15.6 12.4 8.4 62 3.6 SE 15 22 8 12 1026.3 1026.3 0.0
25/07:30pm 16.3 11.7 8.3 59 4.1 SE 22 32 12 17 1026.1 1026.1 0.0
25/07:00pm 16.5 12.4 8.5 59 4.1 SSE 20 28 11 15 1026.0 1026.0 0.0
25/06:30pm 16.3 12.4 8.5 60 4.0 SE 19 24 10 13 1025.5 1025.5 0.0
25/06:00pm 16.4 12.4 8.4 59 4.1 SSE 19 28 10 15 1025.2 1025.2 0.0
25/05:30pm 16.4 12.3 7.9 57 4.3 SSE 19 26 10 14 1025.3 1025.3 0.0
25/05:00pm 16.5 12.2 7.7 56 4.4 SSE 20 24 11 13 1025.2 1025.2 0.0
25/04:30pm 16.6 12.4 8.3 58 4.2 SSE 20 28 11 15 1025.0 1025.0 0.0
25/04:00pm 16.9 12.5 8.8 59 4.2 SSE 22 28 12 15 1024.7 1024.7 0.0
25/03:30pm 17.0 13.4 8.2 56 4.5 SSE 17 22 9 12 1024.6 1024.6 0.0
25/03:00pm 16.9 13.6 8.1 56 4.5 SSE 15 20 8 11 1024.5 1024.5 0.0
25/02:30pm 17.3 14.2 8.7 57 4.4 SSE 15 20 8 11 1024.3 1024.3 0.0
25/02:00pm 17.4 14.9 8.0 54 4.8 ESE 11 19 6 10 1024.3 1024.3 0.0
25/01:30pm 17.8 15.5 7.5 51 5.2 ENE 9 17 5 9 1024.5 1024.5 0.0
25/01:00pm 18.1 16.0 9.7 58 4.4 E 11 17 6 9 1024.8 1024.8 0.0
25/12:30pm 17.5 15.2 8.9 57 4.5 ENE 11 24 6 13 1025.3 1025.3 0.0
25/12:00pm 17.2 14.5 8.9 58 4.3 ENE 13 19 7 10 1025.7 1025.7 0.0
25/11:30am 17.2 13.9 9.6 61 4.0 NE 17 24 9 13 1025.8 1025.8 0.0
25/11:00am 17.0 14.2 9.9 63 3.7 NE 15 19 8 10 1026.5 1026.5 0.0
25/10:30am 17.4 15.0 11.4 68 3.3 NE 15 20 8 11 1026.9 1026.9 0.0
25/10:00am 16.7 13.5 11.4 71 2.9 NNE 19 22 10 12 1026.8 1026.8 0.0
25/09:30am 16.2 12.8 11.4 73 2.6 NNE 20 26 11 14 1026.8 1026.8 0.0
25/09:00am 15.7 12.3 11.1 74 2.4 NE 20 26 11 14 1026.4 1026.4 0.0
25/08:30am 14.5 11.3 10.1 75 2.3 NE 17 22 9 12 1026.3 1026.3 0.0
25/08:00am 14.6 12.9 9.8 73 2.5 NE 9 15 5 8 1026.6 1026.6 0.0
25/07:30am 14.1 10.7 9.1 72 2.5 ENE 17 20 9 11 1025.9 1025.9 0.0
25/07:00am 13.9 10.1 9.1 73 2.4 ENE 19 22 10 12 1025.3 1025.3 0.0
25/06:30am 14.0 10.2 9.0 72 2.5 ENE 19 26 10 14 1025.0 1025.0 0.0
25/06:00am 13.9 10.1 9.1 73 2.4 ENE 19 20 10 11 1025.1 1025.1 0.0
25/05:30am 13.8 10.5 9.6 76 2.2 ENE 17 20 9 11 1024.8 1024.8 0.0
25/05:00am 13.4 10.1 9.6 78 1.9 ENE 17 19 9 10 1024.8 1024.8 0.0
25/04:30am 13.3 10.3 9.2 76 2.1 ENE 15 17 8 9 1025.0 1025.0 0.0
25/04:00am 13.3 10.3 9.2 76 2.1 ENE 15 17 8 9 1025.0 1025.0 0.0
25/03:30am 13.4 10.2 8.5 72 2.5 E 15 19 8 10 1025.1 1025.1 0.0
25/03:00am 14.2 11.4 8.6 69 2.8 ESE 13 17 7 9 1025.1 1025.1 0.0
25/02:30am 13.9 11.3 9.5 75 2.3 SE 13 17 7 9 1025.5 1025.5 0.0
25/02:00am 13.9 11.2 10.5 80 1.8 SE 15 20 8 11 1025.5 1025.5 0.0
25/01:30am 13.7 11.4 10.5 81 1.7 SE 13 17 7 9 1025.0 1025.0 0.0
25/01:00am 13.8 11.2 10.8 82 1.6 SE 15 19 8 10 1024.9 1024.9 0.0
25/12:30am 13.9 11.7 10.7 81 1.7 SE 13 17 7 9 1024.9 1024.9 0.0
25/12:00am 14.1 11.6 10.9 81 1.7 SE 15 19 8 10 1025.0 1025.0 0.0
 
Date/Time
WST
Temp
°C
App
Temp
°C
Dew
Point
°C
Rel
Hum
%
Delta-T
°C
Wind Press
QNH
hPa
Press
MSL
hPa
Rain since
9am
mm
Dir  Spd
km/h
Gust
km/h
Spd
kts
Gust
kts
24/11:30pm 14.2 10.8 10.4 78 2.0 SE 19 24 10 13 1025.2 1025.2 0.0
24/11:00pm 14.0 10.8 10.0 77 2.1 SE 17 24 9 13 1025.3 1025.3 0.0
24/10:30pm 14.0 11.3 10.2 78 2.0 SE 15 22 8 12 1025.4 1025.4 0.0
24/10:00pm 14.1 11.4 10.5 79 1.9 SE 15 20 8 11 1025.5 1025.5 0.0
24/09:30pm 14.8 10.9 9.4 70 2.8 SSE 20 28 11 15 1025.6 1025.6 0.0
24/09:00pm 14.9 10.8 10.1 73 2.5 SSE 22 30 12 16 1025.8 1025.8 0.0
24/08:30pm 15.2 10.1 9.3 68 3.0 SSE 26 33 14 18 1025.6 1025.6 0.0
24/08:00pm 15.2 9.4 9.6 69 2.9 SSE 30 35 16 19 1025.7 1025.7 0.0
24/07:30pm 15.1 9.5 8.8 66 3.2 S 28 37 15 20 1025.6 1025.6 0.0
24/07:00pm 15.2 9.5 8.4 64 3.4 S 28 35 15 19 1025.4 1025.4 0.0
24/06:30pm 15.2 10.4 8.7 65 3.3 S 24 32 13 17 1024.9 1024.9 0.0
24/06:00pm 15.3 9.3 8.5 64 3.4 S 30 37 16 20 1025.0 1025.0 0.0
24/05:30pm 14.9 9.2 8.4 65 3.3 S 28 35 15 19 1025.2 1025.2 0.0
24/05:00pm 15.2 10.4 8.9 66 3.2 S 24 30 13 16 1025.0 1025.0 0.0
24/04:30pm 15.4 9.9 9.1 66 3.2 SSW 28 35 15 19 1024.9 1024.9 0.0
24/04:00pm 15.7 11.1 9.6 67 3.2 S 24 32 13 17 1024.6 1024.6 0.0
24/03:30pm 15.8 11.3 9.9 68 3.1 S 24 30 13 16 1024.6 1024.6 0.0
24/03:00pm 16.2 12.5 10.1 67 3.2 S 20 28 11 15 1024.7 1024.7 0.0
24/02:30pm 16.3 12.8 10.8 70 2.9 S 20 28 11 15 1024.8 1024.8 0.0
24/02:00pm 16.3 12.9 11.2 72 2.7 S 20 26 11 14 1024.9 1024.9 0.0
24/01:30pm 16.2 13.2 12.0 76 2.3 S 19 22 10 12 1024.9 1024.9 0.0
24/01:00pm 16.1 13.4 11.7 75 2.4 SSE 17 20 9 11 1025.1 1025.1 0.0
24/12:30pm 15.8 13.8 11.6 76 2.3 SE 13 20 7 11 1025.5 1025.5 0.0
24/12:00pm 15.9 14.5 12.1 78 2.1 ESE 11 17 6 9 1025.9 1025.9 0.0
24/11:30am 15.6 13.4 12.2 80 1.9 ESE 15 20 8 11 1026.1 1026.1 0.0
24/11:00am 15.3 13.4 11.7 79 1.9 ESE 13 17 7 9 1026.7 1026.7 0.0
24/10:30am 15.0 12.9 11.0 77 2.1 ESE 13 20 7 11 1027.0 1027.0 0.0
24/10:00am 15.0 12.9 11.2 78 2.0 ESE 13 19 7 10 1027.2 1027.2 0.0
24/09:30am 14.7 12.8 11.7 82 1.6 ESE 13 20 7 11 1027.4 1027.4 0.0
24/09:00am 14.5 12.3 12.2 86 1.2 ESE 15 20 8 11 1027.3 1027.3 6.2
24/08:30am 14.1 12.5 12.7 91 0.8 ESE 13 17 7 9 1027.2 1027.2 6.2
24/08:00am 13.6 12.0 12.8 95 0.4 SE 13 17 7 9 1027.1 1027.1 6.2
24/07:30am 13.3 11.4 13.0 98 0.2 SE 15 22 8 12 1026.7 1026.7 6.2
24/07:00am 13.6 11.1 13.4 99 0.1 SE 19 24 10 13 1026.4 1026.4 6.2
24/06:30am 13.3 11.7 12.8 97 0.3 SE 13 19 7 10 1026.2 1026.2 6.2
24/06:00am 13.8 11.9 13.0 95 0.4 SE 15 20 8 11 1025.9 1025.9 6.2
24/05:30am 13.7 11.2 12.3 91 0.8 SE 17 24 9 13 1025.5 1025.5 6.2
24/05:00am 13.6 11.4 12.2 91 0.8 ESE 15 20 8 11 1025.4 1025.4 6.2
24/04:30am 13.6 11.2 12.5 93 0.6 ESE 17 20 9 11 1025.2 1025.2 6.2
24/04:00am 13.7 11.9 13.4 98 0.2 ESE 15 20 8 11 1025.0 1025.0 6.2
24/03:30am 13.8 12.5 13.8 100 0.0 ESE 13 19 7 10 1025.0 1025.0 6.2
24/03:00am 14.1 12.6 14.1 100 0.0 ESE 15 20 8 11 1025.0 1025.0 6.2
24/02:30am 14.3 12.8 14.3 100 0.0 ESE 15 20 8 11 1025.0 1025.0 6.2
24/02:00am 14.4 12.6 14.4 100 0.0 SE 17 26 9 14 1025.0 1025.0 6.2
24/01:30am 14.7 12.0 14.7 100 0.0 SE 22 30 12 16 1024.9 1024.9 6.2
24/01:00am 14.8 12.6 14.8 100 0.0 SE 20 30 11 16 1024.7 1024.7 6.2
24/12:30am 15.1 11.8 15.1 100 0.0 SE 26 33 14 18 1024.6 1024.6 6.2
24/12:00am 15.6 12.5 15.6 100 0.0 SE 26 32 14 17 1024.6 1024.6 6.2
 
Date/Time
WST
Temp
°C
App
Temp
°C
Dew
Point
°C
Rel
Hum
%
Delta-T
°C
Wind Press
QNH
hPa
Press
MSL
hPa
Rain since
9am
mm
Dir  Spd
km/h
Gust
km/h
Spd
kts
Gust
kts
23/11:30pm 15.7 13.3 15.5 99 0.1 SE 22 30 12 16 1024.6 1024.6 6.0
23/11:00pm 15.7 13.5 14.9 95 0.5 SSE 20 28 11 15 1024.7 1024.7 6.0
23/10:30pm 15.8 12.9 15.2 96 0.3 SSE 24 32 13 17 1024.6 1024.6 6.0
23/10:00pm 15.6 12.8 15.4 99 0.1 SSE 24 32 13 17 1024.6 1024.6 6.0
23/09:30pm 15.9 13.6 15.7 99 0.1 SSE 22 28 12 15 1024.5 1024.5 6.0
23/09:00pm 16.0 14.2 16.0 100 0.0 SSE 20 26 11 14 1024.6 1024.6 6.0
23/08:30pm 15.9 13.6 15.7 99 0.1 SSE 22 28 12 15 1024.3 1024.3 6.0
23/08:00pm 15.9 13.9 15.6 98 0.2 SSE 20 26 11 14 1023.9 1023.9 6.0
23/07:30pm 15.8 15.3 15.8 100 0.0 SE 13 20 7 11 1023.8 1023.8 6.0
23/07:00pm 15.8 15.6 15.8 100 0.0 ESE 11 13 6 7 1023.7 1023.7 6.0
23/06:30pm 15.8 15.3 15.8 100 0.0 SE 13 17 7 9 1023.6 1023.6 6.0
23/06:00pm 15.6 15.4 15.6 100 0.0 SE 11 13 6 7 1023.4 1023.4 6.0
23/05:30pm 15.8 14.9 15.8 100 0.0 SSE 15 20 8 11 1023.2 1023.2 6.0
23/05:00pm 15.7 14.0 15.7 100 0.0 SSE 19 26 10 14 1023.1 1023.1 6.0
23/04:30pm 15.7 14.7 15.7 100 0.0 SE 15 19 8 10 1022.9 1022.9 6.0
23/04:00pm 15.4 12.6 15.4 100 0.0 SSE 24 33 13 18 1022.7 1022.7 5.8
23/03:30pm 15.0 12.1 15.0 100 0.0 S 24 30 13 16 1022.7 1022.7 5.6
23/03:00pm 14.4 10.1 14.4 100 0.0 S 30 46 16 25 1022.5 1022.5 4.6
23/02:30pm 15.9 13.3 15.9 100 0.0 SSE 24 32 13 17 1022.0 1022.0 4.2
23/02:00pm 15.6 12.5 15.6 100 0.0 SSE 26 32 14 17 1021.9 1021.9 4.0
23/01:30pm 15.4 11.1 15.4 100 0.0 SSE 32 41 17 22 1022.0 1022.0 2.8
23/01:00pm 15.4 9.8 15.4 100 0.0 S 39 48 21 26 1022.1 1022.1 1.2
23/12:30pm 16.7 14.4 16.7 100 0.0 SSW 24 41 13 22 1022.3 1022.3 0.6
23/12:27pm 17.1 15.7 17.1 100 0.0 SW 20 37 11 20 1022.3 1022.3 0.6
23/12:00pm 19.2 20.1 19.2 100 0.0 N 13 17 7 9 1022.7 1022.7 0.4
23/11:30am 18.0 19.1 18.0 100 0.0 N 9 13 5 7 1023.1 1023.1 0.4
23/11:00am 18.6 20.3 18.6 100 0.0 NNE 7 15 4 8 1023.4 1023.4 0.4
23/10:30am 17.6 18.9 17.6 100 0.0 NE 7 9 4 5 1023.5 1023.5 0.4
23/10:00am 16.6 17.1 16.6 100 0.0 NE 9 13 5 7 1023.5 1023.5 0.4
23/09:30am 16.3 16.7 16.3 100 0.0 ENE 9 13 5 7 1023.5 1023.5 0.4
23/09:00am 16.2 16.6 16.2 100 0.0 E 9 15 5 8 1023.2 1023.2 5.4
23/08:30am 16.3 15.6 16.3 100 0.0 E 15 20 8 11 1022.7 1022.7 3.8
23/08:00am 16.5 16.6 16.5 100 0.0 E 11 15 6 8 1022.6 1022.6 2.8
23/07:30am 16.9 16.8 16.9 100 0.0 SE 13 19 7 10 1022.4 1022.4 2.8
23/07:00am 17.0 16.9 17.0 100 0.0 SSE 13 19 7 10 1022.2 1022.2 2.8
23/06:30am 16.9 15.6 16.9 100 0.0 S 19 22 10 12 1021.9 1021.9 2.8
23/06:00am 16.9 15.5 16.9 100 0.0 S 20 26 11 14 1021.6 1021.6 2.8
23/05:30am 17.4 16.8 15.7 90 1.0 W 13 17 7 9 1021.6 1021.6 2.8
23/05:00am 17.1 16.4 15.3 89 1.0 WSW 13 19 7 10 1021.5 1021.5 2.8
23/04:30am 16.9 15.2 14.7 87 1.3 WSW 17 19 9 10 1021.5 1021.5 2.8
23/04:00am 17.3 15.7 14.0 81 1.9 WSW 15 19 8 10 1021.5 1021.5 2.8
23/03:30am 17.3 15.7 14.0 81 1.9 WSW 15 17 8 9 1021.3 1021.3 2.8
23/03:00am 17.4 16.3 14.3 82 1.8 WSW 13 15 7 8 1021.2 1021.2 2.8
23/02:30am 17.0 15.3 14.6 86 1.4 WSW 17 20 9 11 1021.3 1021.3 2.8
23/02:00am 17.5 16.1 14.4 82 1.8 W 15 19 8 10 1021.3 1021.3 2.8
23/01:30am 17.1 15.2 14.2 83 1.7 W 17 20 9 11 1021.4 1021.4 2.8
23/01:00am 17.5 15.7 14.4 82 1.8 W 17 20 9 11 1021.4 1021.4 2.8
23/12:30am 17.5 15.2 14.0 80 2.0 W 19 22 10 12 1021.5 1021.5 2.8
23/12:00am 17.7 15.9 14.4 81 1.9 W 17 24 9 13 1021.8 1021.8 2.8
 
Date/Time
WST
Temp
°C
App
Temp
°C
Dew
Point
°C
Rel
Hum
%
Delta-T
°C
Wind Press
QNH
hPa
Press
MSL
hPa
Rain since
9am
mm
Dir  Spd
km/h
Gust
km/h
Spd
kts
Gust
kts
22/11:30pm 17.5 15.2 14.2 81 1.9 WSW 19 22 10 12 1021.8 1021.8 2.8
22/11:00pm 17.9 15.7 14.4 80 2.0 W 19 24 10 13 1022.0 1022.0 2.8
22/10:30pm 17.6 15.6 13.9 79 2.1 W 17 20 9 11 1022.0 1022.0 2.8

Other formats

Comma delimited format used in spreadsheet applications
http://www.bom.gov.au/fwo/IDW60801/IDW60801.94602.axf

JavaScript Object Notation format (JSON) in row-major order
http://www.bom.gov.au/fwo/IDW60801/IDW60801.94602.json

Data quality

Most of these data are generated automatically and are frequently updated. Quality checks on data are not normally performed. It is possible for incorrect values to appear. Refer to information at About Latest Weather Observations and please check the disclaimer before using these data.